CheckWX is a tool to help pilots better visualize weather data.  It is not intended as a substitute for an official pre-flight weather briefing.

19:19:59 UTC

EDDV TAF
Hannover Airport
Hannover, Germany
TAF COR EDDV 191725Z 1918/2018 22005KT CAVOK PROB40 TEMPO 1918/1924 22015G35KT TSRA BKN030CB PROB30 TEMPO 1922/2004 3000 BR PROB30 TEMPO 2000/2008 24015G25KT SHRA BKN020CB PROB40 TEMPO 2003/2008 BKN012 FM200800 25010KT 9999 BKN030 TEMPO 2008/2018 SHRA BKN020CB PROB30 TEMPO 2008/2018 23015G30KT 4000 TSRA BKN015CB BECMG 2016/2018 25005KT

Jun-19@
18:00 UTC

Jun-19 @ 18:00 UTC

Jun-20@
08:00 UTC

Jun-20 @ 08:00 UTC

TAF COR EDDV 191725Z 1918/2018 22005KT CAVOK
Wind
  • 220° at 5 KTS
Conditions
No significant weather
Cloud Levels
  • No significant clouds

Jun-19@
18:00 UTC

Jun-19 @ 18:00 UTC

Jun-20@
00:00 UTC

Jun-20 @ 00:00 UTC

PROB40 TEMPO 1918/1924 22015G35KT TSRA BKN030CB

Temporary - 40% Likelihood

Temporary - 40% Likelihood during this time.

Wind
  • 220° at 15 KTS
  • {Gusting to 35 KTS
Conditions
Thunderstorm, Rain
Cloud Levels
  • Broken at 3,000' AGL

Jun-19@
22:00 UTC

Jun-19 @ 22:00 UTC

Jun-20@
04:00 UTC

Jun-20 @ 04:00 UTC

PROB30 TEMPO 1922/2004 3000 BR

Temporary - 30% Likelihood

Temporary - 30% Likelihood during this time.

Conditions
Mist

Jun-20@
00:00 UTC

Jun-20 @ 00:00 UTC

Jun-20@
08:00 UTC

Jun-20 @ 08:00 UTC

PROB30 TEMPO 2000/2008 24015G25KT SHRA BKN020CB

Temporary - 30% Likelihood

Temporary - 30% Likelihood during this time.

Wind
  • 240° at 15 KTS
  • {Gusting to 25 KTS
Conditions
Rain
Cloud Levels
  • Broken at 2,000' AGL

Jun-20@
03:00 UTC

Jun-20 @ 03:00 UTC

Jun-20@
08:00 UTC

Jun-20 @ 08:00 UTC

PROB40 TEMPO 2003/2008 BKN012

Temporary - 40% Likelihood

Temporary - 40% Likelihood during this time.

Cloud Levels
  • Broken at 1,200' AGL

Jun-20@
08:00 UTC

Jun-20 @ 08:00 UTC

Jun-20@
16:00 UTC

Jun-20 @ 16:00 UTC

FM200800 25010KT 9999 BKN030

From

From Standard forecast or significant change

Wind
  • 250° at 10 KTS
Cloud Levels
  • Broken at 3,000' AGL

Jun-20@
08:00 UTC

Jun-20 @ 08:00 UTC

Jun-20@
18:00 UTC

Jun-20 @ 18:00 UTC

TEMPO 2008/2018 SHRA BKN020CB

Temporary

Temporary Changes expected for less than half the time period

Conditions
Rain
Cloud Levels
  • Broken at 2,000' AGL

Jun-20@
08:00 UTC

Jun-20 @ 08:00 UTC

Jun-20@
18:00 UTC

Jun-20 @ 18:00 UTC

PROB30 TEMPO 2008/2018 23015G30KT 4000 TSRA BKN015CB

Temporary - 30% Likelihood

Temporary - 30% Likelihood during this time.

Wind
  • 230° at 15 KTS
  • {Gusting to 30 KTS
Conditions
Thunderstorm, Rain
Cloud Levels
  • Broken at 1,500' AGL

Jun-20@
16:00 UTC

Jun-20 @ 16:00 UTC

Jun-20@
18:00 UTC

Jun-20 @ 18:00 UTC

BECMG 2016/2018 25005KT

Becoming

Becoming Conditions expected by Thu, Jun 20, 2019 @ 18:00 UTC

Wind
  • 250° at 5 KTS
Cloud Levels
  • Broken at 3,000' AGL